createdAt,value
2018-09-13T09:34:26.373Z,55.30
2018-09-13T09:36:55.412Z,55.60
2018-09-13T09:39:24.334Z,55.20
2018-09-13T09:41:53.604Z,55.20
2018-09-13T09:44:23.045Z,55.00
2018-09-13T09:46:51.905Z,55.00
2018-09-13T09:49:20.804Z,54.90
2018-09-13T09:51:49.729Z,55.20
2018-09-13T09:54:18.512Z,54.50
2018-09-13T09:56:47.370Z,54.30
2018-09-13T09:59:16.415Z,54.20
2018-09-13T10:01:50.652Z,54.10
2018-09-13T10:04:19.616Z,53.70
2018-09-13T10:06:48.453Z,53.90
2018-09-13T10:09:17.294Z,55.60
2018-09-13T10:11:46.141Z,52.80
2018-09-13T10:14:14.987Z,53.70
2018-09-13T10:16:49.293Z,53.20
2018-09-13T10:19:23.391Z,52.50
2018-09-13T10:24:31.658Z,52.10
2018-09-13T10:27:05.886Z,53.00
2018-09-13T10:29:40.480Z,52.90
2018-09-13T10:32:14.771Z,50.70
2018-09-13T10:34:48.930Z,50.10
2018-09-13T10:37:22.975Z,50.80
2018-09-13T10:39:57.207Z,50.40
2018-09-13T10:42:31.472Z,49.90
2018-09-13T10:45:05.627Z,49.70
2018-09-13T10:47:42.165Z,49.50
2018-09-13T10:50:15.620Z,49.50
2018-09-13T10:52:48.237Z,49.50
2018-09-13T10:55:17.149Z,50.00
2018-09-13T10:57:45.950Z,51.10
2018-09-13T11:00:15.268Z,50.30
2018-09-13T11:02:44.174Z,52.90
2018-09-13T11:05:13.129Z,53.80
2018-09-13T11:07:41.983Z,56.10
2018-09-13T11:10:10.863Z,52.90
2018-09-13T11:12:45.108Z,52.40
2018-09-13T11:17:48.078Z,49.30
2018-09-13T11:20:16.886Z,80.30
2018-09-13T11:22:50.157Z,76.20
2018-09-13T11:25:18.979Z,48.70
2018-09-13T11:27:47.885Z,49.40
2018-09-13T11:30:16.759Z,48.60
2018-09-13T11:32:45.731Z,49.10
2018-09-13T11:35:14.643Z,48.50
2018-09-13T11:37:43.499Z,48.80
2018-09-13T11:40:12.880Z,48.10
2018-09-13T11:42:42.214Z,47.80
2018-09-13T11:45:11.026Z,48.10
2018-09-13T11:47:40.981Z,48.00
2018-09-13T11:50:09.845Z,46.40
2018-09-13T11:52:38.723Z,45.60
2018-09-13T11:55:08.021Z,46.50
2018-09-13T11:57:36.927Z,46.50
2018-09-13T12:00:05.906Z,46.70
2018-09-13T12:02:34.746Z,46.40
2018-09-13T12:05:04.322Z,46.80
2018-09-13T12:07:33.448Z,46.70
2018-09-13T12:10:02.280Z,46.50
2018-09-13T12:12:31.123Z,46.10
2018-09-13T12:14:59.941Z,45.60
2018-09-13T12:17:28.764Z,45.20
2018-09-13T12:19:58.132Z,45.30
2018-09-13T12:22:27.087Z,45.40
2018-09-13T12:24:55.968Z,45.40
2018-09-13T12:27:24.823Z,45.90
2018-09-13T12:29:53.689Z,46.00
2018-09-13T12:32:22.603Z,46.00
2018-09-13T12:34:51.481Z,46.30
2018-09-13T12:37:20.561Z,46.80
2018-09-13T12:39:49.447Z,47.00
2018-09-13T12:42:18.287Z,47.60
2018-09-13T12:44:47.181Z,48.30
2018-09-13T12:47:16.021Z,48.40
2018-09-13T12:49:44.971Z,48.60
2018-09-13T12:52:13.960Z,48.70
2018-09-13T12:54:42.760Z,50.80
2018-09-13T12:57:11.739Z,52.50
2018-09-13T12:59:40.569Z,60.40
2018-09-13T13:02:09.405Z,64.40
2018-09-13T13:04:38.235Z,60.50
2018-09-13T13:07:07.125Z,56.50
2018-09-13T13:09:35.951Z,52.40
2018-09-13T13:12:07.184Z,51.40
2018-09-13T13:14:36.330Z,50.90
2018-09-13T13:17:05.172Z,51.10
2018-09-13T13:19:34.033Z,50.60
2018-09-13T13:22:02.879Z,50.40
2018-09-13T13:24:31.698Z,50.50
2018-09-13T13:27:00.624Z,53.50
2018-09-13T13:29:29.661Z,56.60
2018-09-13T13:31:58.640Z,55.80
2018-09-13T13:34:27.471Z,51.70
2018-09-13T13:36:56.457Z,50.90
2018-09-13T13:39:25.349Z,50.20
2018-09-13T13:41:54.255Z,50.10
2018-09-13T13:44:23.116Z,50.80
2018-09-13T13:46:51.952Z,49.90
2018-09-13T13:49:21.302Z,49.10
2018-09-13T13:51:50.305Z,48.70
2018-09-13T13:54:20.161Z,49.00
2018-09-13T13:56:49.081Z,50.50
2018-09-13T13:59:17.987Z,50.00
2018-09-13T14:01:47.811Z,49.70
2018-09-13T14:04:16.691Z,50.20
2018-09-13T14:06:48.046Z,51.80
2018-09-13T14:09:17.204Z,52.80
2018-09-13T14:11:46.049Z,54.40
2018-09-13T14:14:14.939Z,55.50
2018-09-13T14:16:43.860Z,56.40
2018-09-13T14:19:12.744Z,58.40
2018-09-13T14:21:41.691Z,78.80
2018-09-13T14:24:10.575Z,79.10
2018-09-13T14:29:10.604Z,82.30
2018-09-13T14:31:41.095Z,76.70
2018-09-13T14:39:09.951Z,81.70
2018-09-13T14:41:38.817Z,75.40
2018-09-13T14:44:07.996Z,74.30
2018-09-13T14:49:06.935Z,76.70
2018-09-13T14:51:36.093Z,82.50
2018-09-13T14:54:05.600Z,81.00
2018-09-13T14:59:05.913Z,74.80
2018-09-13T15:01:36.769Z,77.80
2018-09-13T15:04:05.656Z,79.30
2018-09-13T15:06:34.532Z,81.70
2018-09-13T15:09:03.621Z,81.80
2018-09-13T15:11:32.451Z,82.20
2018-09-13T15:14:01.333Z,76.40
2018-09-13T15:26:25.816Z,61.40
2018-09-13T15:28:54.700Z,63.00
2018-09-13T15:31:24.506Z,62.80
2018-09-13T15:33:53.385Z,63.40
2018-09-13T15:36:22.236Z,63.70
2018-09-13T15:38:52.194Z,63.90
2018-09-13T15:41:21.100Z,64.20
2018-09-13T15:43:50.733Z,65.10
2018-09-13T15:46:19.619Z,66.00
2018-09-13T15:48:48.838Z,66.80
2018-09-13T15:51:18.463Z,69.20
2018-09-13T15:53:47.431Z,55.10
2018-09-13T15:56:16.812Z,54.10
2018-09-13T15:58:48.235Z,53.40
2018-09-13T16:01:17.101Z,52.30
2018-09-13T16:03:46.300Z,53.00
2018-09-13T16:06:16.238Z,54.10
2018-09-13T16:08:45.603Z,55.00
2018-09-13T16:11:15.030Z,55.30
2018-09-13T16:13:44.316Z,56.60
2018-09-13T16:16:13.155Z,58.20
2018-09-13T16:18:42.013Z,59.00
2018-09-13T16:21:11.252Z,58.70
2018-09-13T16:23:40.040Z,56.30
2018-09-13T16:26:08.987Z,57.10
2018-09-13T16:28:37.823Z,57.60
2018-09-13T16:31:06.749Z,57.10
2018-09-13T16:33:35.677Z,54.20
2018-09-13T16:36:04.632Z,55.20
2018-09-13T16:38:39.304Z,63.00
2018-09-13T16:41:13.620Z,60.90
2018-09-13T16:43:47.884Z,65.10
2018-09-13T16:46:22.202Z,75.00
2018-09-13T16:48:51.181Z,62.50
2018-09-13T16:51:20.323Z,69.60
2018-09-13T16:53:49.236Z,61.90
2018-09-13T16:56:18.155Z,62.90
2018-09-13T16:58:47.068Z,63.40
2018-09-13T17:01:16.480Z,73.00
2018-09-13T17:03:45.788Z,66.70
2018-09-13T17:06:14.801Z,64.90
2018-09-13T17:08:43.667Z,84.20
2018-09-13T17:13:42.237Z,85.80
2018-09-13T17:16:11.253Z,69.60
2018-09-13T17:18:40.219Z,66.90
2018-09-13T17:21:09.096Z,68.00
2018-09-13T17:26:07.370Z,82.00
2018-09-13T17:28:36.596Z,64.90
2018-09-13T17:31:05.573Z,59.60
2018-09-13T17:33:34.526Z,58.20
2018-09-13T17:36:04.274Z,57.80
2018-09-13T17:38:33.092Z,58.00
2018-09-13T17:41:02.215Z,57.20
2018-09-13T17:43:31.168Z,58.30
2018-09-13T17:46:00.047Z,63.40
2018-09-13T17:48:28.957Z,71.40
2018-09-13T17:50:58.405Z,71.20
2018-09-13T17:53:27.309Z,69.80
2018-09-13T17:55:56.339Z,74.80
2018-09-13T18:57:58.675Z,45.60
2018-09-13T19:00:27.622Z,46.20
2018-09-13T19:02:57.370Z,46.40
2018-09-13T19:05:27.325Z,46.50
2018-09-13T19:07:56.695Z,46.60
2018-09-13T19:10:25.616Z,46.80
2018-09-13T19:12:54.524Z,46.90
2018-09-13T19:15:23.740Z,47.10
2018-09-13T19:17:52.724Z,47.10
2018-09-13T19:20:21.867Z,47.20
2018-09-13T19:22:50.793Z,47.30
2018-09-13T19:25:20.244Z,47.50
2018-09-13T19:27:49.523Z,47.60
2018-09-13T19:30:18.496Z,47.80
2018-09-13T19:32:47.600Z,48.10
2018-09-13T19:35:16.634Z,49.70
2018-09-13T19:37:47.581Z,53.30
2018-09-13T19:40:16.757Z,57.50
2018-09-13T19:42:46.561Z,76.20
2018-09-13T19:45:15.729Z,74.10
2018-09-13T19:47:44.863Z,75.70
2018-09-13T19:50:13.783Z,74.20
2018-09-13T19:52:43.099Z,76.10
2018-09-13T19:55:11.914Z,78.20
2018-09-13T19:57:40.750Z,79.80
2018-09-13T20:00:09.747Z,83.30
2018-09-13T20:02:38.683Z,85.10
2018-09-13T20:05:07.633Z,84.10
2018-09-13T20:07:38.058Z,88.10
2018-09-13T20:10:07.226Z,48.80
2018-09-13T20:12:36.073Z,49.60
2018-09-13T20:15:05.497Z,50.30
2018-09-13T20:17:34.408Z,49.80
2018-09-13T20:20:04.159Z,49.90
2018-09-13T20:22:32.992Z,50.00
2018-09-13T20:25:01.845Z,50.00
2018-09-13T20:27:30.717Z,50.10
2018-09-13T20:29:59.669Z,50.10
2018-09-13T20:32:28.850Z,50.20
2018-09-13T20:34:57.745Z,50.30
2018-09-13T20:37:26.604Z,50.40
2018-09-13T20:39:55.454Z,50.40
2018-09-13T20:42:24.501Z,50.60
2018-09-13T20:44:53.500Z,50.60
2018-09-13T20:47:22.778Z,50.60
2018-09-13T20:49:51.682Z,50.80
2018-09-13T20:52:20.532Z,50.80
2018-09-13T20:54:49.411Z,50.90
2018-09-13T20:57:18.295Z,51.60
2018-09-13T20:59:47.098Z,51.20
2018-09-13T21:02:15.935Z,51.20
2018-09-13T21:04:44.907Z,51.20
2018-09-13T21:07:13.837Z,51.30
2018-09-13T21:09:43.527Z,51.30
2018-09-13T21:12:12.741Z,52.00
2018-09-13T21:14:41.608Z,51.50
2018-09-13T21:17:10.510Z,51.50
2018-09-13T21:19:39.408Z,51.60
2018-09-13T21:22:09.164Z,51.70
2018-09-13T21:24:38.394Z,51.70
2018-09-13T21:27:07.879Z,51.70
2018-09-13T21:29:36.944Z,51.80
2018-09-13T21:32:06.303Z,51.90
2018-09-13T21:34:35.417Z,51.90
2018-09-13T21:37:05.049Z,52.00
2018-09-13T21:39:33.910Z,52.00
2018-09-13T21:42:02.813Z,52.70
2018-09-13T21:44:31.713Z,52.10
2018-09-13T21:47:00.477Z,52.20
2018-09-13T21:49:29.357Z,52.10
2018-09-13T21:51:58.240Z,52.30
2018-09-13T21:54:27.057Z,52.30
2018-09-13T21:56:55.957Z,52.30
2018-09-13T21:59:24.823Z,52.30
2018-09-13T22:01:53.697Z,52.40
2018-09-13T22:04:22.569Z,52.40
2018-09-13T22:06:51.425Z,52.50
2018-09-13T22:09:20.248Z,52.50
2018-09-13T22:11:49.087Z,52.60
2018-09-13T22:14:18.017Z,52.70
2018-09-13T22:16:46.916Z,52.80
2018-09-13T22:19:15.721Z,53.20
2018-09-13T22:21:44.552Z,53.60
2018-09-13T22:24:13.380Z,54.40
2018-09-13T22:26:42.212Z,55.10
2018-09-13T22:29:11.111Z,55.80
2018-09-13T22:31:39.876Z,56.10
2018-09-13T22:34:08.694Z,56.40
2018-09-13T22:36:37.516Z,57.00
2018-09-13T22:39:08.043Z,57.50
2018-09-13T22:41:37.599Z,58.10
2018-09-13T22:44:06.751Z,59.00
2018-09-13T22:46:35.802Z,59.60
2018-09-13T22:49:05.187Z,60.30
2018-09-13T22:51:34.414Z,60.70
2018-09-13T22:54:03.541Z,61.00
2018-09-13T22:56:32.355Z,61.50
2018-09-13T22:59:01.204Z,62.20
2018-09-13T23:01:30.053Z,62.60
2018-09-13T23:03:58.894Z,63.00
2018-09-13T23:06:27.756Z,63.60
2018-09-13T23:08:56.607Z,64.20
2018-09-13T23:11:26.059Z,64.90
2018-09-13T23:13:54.891Z,66.90
2018-09-13T23:16:23.800Z,66.90
2018-09-13T23:18:53.120Z,67.50
2018-09-13T23:21:21.987Z,68.30
2018-09-13T23:23:50.854Z,69.30
2018-09-13T23:26:19.745Z,70.20
2018-09-13T23:28:48.563Z,71.70
2018-09-13T23:31:17.420Z,73.80
2018-09-13T23:33:46.253Z,76.30
2018-09-13T23:36:15.387Z,77.70
2018-09-13T23:38:44.215Z,78.70
2018-09-13T23:41:13.206Z,80.30
2018-09-13T23:43:42.057Z,81.80
2018-09-13T23:46:10.950Z,82.70
2018-09-13T23:48:39.715Z,83.60
2018-09-13T23:51:08.655Z,84.70
2018-09-13T23:53:37.515Z,86.00
2018-09-13T23:56:06.432Z,86.80
2018-09-13T23:58:35.624Z,87.80
